Time;durP1;ratioP1;P1;durP2;ratioP2;P2;SDS_P1;SDS_P2;PMS_P1;PMS_P2;Temp;Humidity;BMP_temperature;BMP_pressure;BME280_temperature;BME280_humidity;BME280_pressure;Samples;Min_cycle;Max_cycle;Signal;HPM_P1;HPM_P2
2023/05/29 00:02:16;;;;;;;8.73;5.90;;;;;;;17.12;99.43;99073.16;5030184;28;20041;-79
2023/05/29 00:04:42;;;;;;;9.18;7.20;;;;;;;17.20;98.94;99074.00;5031221;28;20033;-79
2023/05/29 00:07:07;;;;;;;11.05;8.55;;;;;;;17.13;98.94;99065.47;5031595;28;20091;-79
2023/05/29 00:09:33;;;;;;;11.80;7.07;;;;;;;17.10;99.42;99066.25;5028787;28;20044;-79
2023/05/29 00:11:58;;;;;;;14.23;7.65;;;;;;;17.17;99.45;99066.31;5028610;28;20025;-79
2023/05/29 00:14:25;;;;;;;14.30;8.05;;;;;;;17.09;99.98;99058.97;5030922;28;20461;-79
2023/05/29 00:16:51;;;;;;;12.80;8.23;;;;;;;17.21;100.00;99072.81;5029235;28;20033;-79
2023/05/29 00:19:16;;;;;;;13.93;8.05;;;;;;;17.14;100.00;99055.00;5029791;28;20083;-79
2023/05/29 00:21:42;;;;;;;11.40;7.45;;;;;;;17.05;100.00;99053.28;5029772;28;20488;-79
2023/05/29 00:24:08;;;;;;;10.32;6.45;;;;;;;17.11;99.92;99062.22;5030951;28;20017;-79
2023/05/29 00:26:34;;;;;;;12.40;6.63;;;;;;;16.95;98.94;99066.09;5026806;28;20040;-79
2023/05/29 00:28:59;;;;;;;10.02;5.68;;;;;;;16.67;99.53;99073.06;5027670;28;20072;-79
2023/05/29 00:31:25;;;;;;;13.05;7.43;;;;;;;16.73;99.97;99055.78;5030915;28;20025;-79
2023/05/29 00:33:51;;;;;;;9.25;6.35;;;;;;;16.76;100.00;99067.09;5030598;28;20497;-79
2023/05/29 00:36:16;;;;;;;14.93;5.70;;;;;;;16.74;99.85;99060.22;5029646;28;20029;-79
2023/05/29 00:38:42;;;;;;;7.22;5.60;;;;;;;16.69;100.00;99070.66;5029773;28;20126;-79
2023/05/29 00:41:12;;;;;;;6.78;5.68;;;;;;;16.60;100.00;99058.88;5028102;28;20436;-79
2023/05/29 00:43:38;;;;;;;9.68;5.10;;;;;;;16.54;100.00;99051.94;5029512;28;20031;-79
2023/05/29 00:46:04;;;;;;;12.70;6.13;;;;;;;16.52;100.00;99059.97;5027722;28;20416;-79
2023/05/29 00:48:30;;;;;;;10.35;6.90;;;;;;;16.44;100.00;99070.38;5029227;28;20034;-79
2023/05/29 00:50:55;;;;;;;9.43;6.25;;;;;;;16.61;100.00;99066.13;5030374;28;20042;-79
2023/05/29 00:53:22;;;;;;;9.00;5.38;;;;;;;16.63;100.00;99055.25;5029404;28;20092;-78
2023/05/29 00:55:48;;;;;;;9.15;5.13;;;;;;;16.82;99.46;99068.38;5029221;28;20048;-79
2023/05/29 00:58:14;;;;;;;6.95;4.93;;;;;;;16.86;99.23;99057.13;5028993;28;20264;-79
2023/05/29 01:00:40;;;;;;;10.10;4.68;;;;;;;16.83;99.27;99055.91;5028064;28;20030;-79
2023/05/29 01:03:07;;;;;;;11.00;4.65;;;;;;;16.50;100.00;99051.09;5028991;28;20420;-78
2023/05/29 01:05:35;;;;;;;10.90;6.03;;;;;;;16.28;100.00;99048.81;5029443;28;20033;-78
2023/05/29 01:08:02;;;;;;;16.67;7.35;;;;;;;16.20;100.00;99043.47;5030857;28;20017;-78
2023/05/29 01:10:28;;;;;;;10.20;6.60;;;;;;;16.32;100.00;99051.69;5028227;28;20540;-79
2023/05/29 01:13:23;;;;;;;14.43;6.28;;;;;;;16.48;100.00;99042.19;5030416;28;20397;-79
2023/05/29 01:15:58;;;;;;;9.60;5.60;;;;;;;16.47;100.00;99044.22;5027721;28;20045;-78
2023/05/29 01:18:47;;;;;;;11.63;5.22;;;;;;;16.42;100.00;99036.91;5029322;28;20025;-78
2023/05/29 01:21:48;;;;;;;7.40;4.88;;;;;;;16.26;100.00;99036.28;5030270;28;20026;-78
2023/05/29 01:24:37;;;;;;;17.23;5.93;;;;;;;16.13;100.00;99035.75;5030373;28;20072;-78
2023/05/29 01:27:10;;;;;;;11.50;5.75;;;;;;;16.03;100.00;99039.22;5010862;28;20402;-78
2023/05/29 01:29:38;;;;;;;10.20;6.50;;;;;;;16.11;100.00;99029.69;5012927;28;20454;-78
2023/05/29 01:32:05;;;;;;;10.23;5.30;;;;;;;16.14;100.00;99026.88;5014222;28;20515;-78
2023/05/29 01:34:30;;;;;;;7.75;5.30;;;;;;;16.10;100.00;99042.13;5025567;28;20025;-79
2023/05/29 01:36:56;;;;;;;10.65;5.50;;;;;;;15.85;100.00;99039.75;5033881;28;20060;-78
2023/05/29 01:39:23;;;;;;;10.45;6.10;;;;;;;15.72;100.00;99042.00;5032950;28;20417;-78
2023/05/29 01:41:50;;;;;;;16.52;5.75;;;;;;;15.20;100.00;99028.31;5033554;28;20033;-78
2023/05/29 01:44:16;;;;;;;10.05;6.30;;;;;;;15.44;100.00;99018.66;5033229;28;20025;-78
2023/05/29 01:46:43;;;;;;;10.00;6.35;;;;;;;15.63;100.00;99033.84;5032292;28;20057;-78
2023/05/29 01:49:11;;;;;;;10.23;5.15;;;;;;;15.51;100.00;99023.56;5031551;28;20025;-78
2023/05/29 01:51:37;;;;;;;9.63;6.50;;;;;;;15.52;100.00;99025.19;5032902;28;20057;-79
2023/05/29 01:54:03;;;;;;;12.20;7.45;;;;;;;15.56;100.00;99033.72;5030236;28;20503;-78
2023/05/29 01:56:29;;;;;;;15.95;7.95;;;;;;;15.69;100.00;99032.28;5030435;28;20049;-79
2023/05/29 01:58:56;;;;;;;12.60;7.70;;;;;;;15.68;100.00;99035.47;5033292;28;20102;-80
2023/05/29 02:01:22;;;;;;;17.20;6.35;;;;;;;15.63;100.00;99031.00;5033281;28;20033;-79
2023/05/29 02:03:48;;;;;;;14.15;5.68;;;;;;;15.75;100.00;99027.13;5031804;28;20026;-79
2023/05/29 02:06:13;;;;;;;9.43;5.93;;;;;;;15.78;100.00;99028.38;5033412;28;20052;-80
2023/05/29 02:08:39;;;;;;;14.73;6.25;;;;;;;15.83;100.00;99037.34;5032927;28;20029;-78
2023/05/29 02:11:05;;;;;;;9.57;6.65;;;;;;;15.96;100.00;99045.59;5031661;28;20036;-79
2023/05/29 02:13:31;;;;;;;17.20;7.25;;;;;;;15.97;100.00;99041.56;5033095;28;20036;-80
2023/05/29 02:15:56;;;;;;;11.93;6.03;;;;;;;16.08;100.00;99030.41;5032816;28;20079;-79
2023/05/29 02:18:22;;;;;;;11.25;6.10;;;;;;;16.22;100.00;99047.53;5030087;28;20025;-79
2023/05/29 02:20:48;;;;;;;10.98;5.75;;;;;;;16.26;100.00;99045.56;5031926;28;20092;-80
2023/05/29 02:23:15;;;;;;;12.32;6.25;;;;;;;16.31;100.00;99038.78;5032954;28;20029;-79
2023/05/29 02:25:40;;;;;;;7.55;5.45;;;;;;;16.37;100.00;99040.06;5032491;28;20481;-79
2023/05/29 02:28:06;;;;;;;17.73;5.38;;;;;;;16.44;100.00;99039.31;5029402;28;20113;-80
2023/05/29 02:30:31;;;;;;;11.98;5.72;;;;;;;16.45;100.00;99040.16;5032636;28;20029;-80
2023/05/29 02:32:57;;;;;;;7.93;5.22;;;;;;;16.51;100.00;99041.41;5032761;28;20025;-80
2023/05/29 02:35:23;;;;;;;8.43;5.28;;;;;;;16.53;100.00;99045.47;5032610;28;20029;-80
2023/05/29 02:37:52;;;;;;;12.85;5.57;;;;;;;16.68;100.00;99049.28;5031659;28;20108;-80
2023/05/29 02:40:18;;;;;;;9.88;5.15;;;;;;;16.70;99.65;99048.88;5031060;28;20030;-79
2023/05/29 02:42:44;;;;;;;7.05;5.88;;;;;;;16.66;99.77;99036.75;5032079;28;20029;-80
2023/05/29 02:45:10;;;;;;;9.27;5.45;;;;;;;16.68;99.19;99046.47;5031905;28;20022;-79
2023/05/29 02:47:36;;;;;;;11.88;5.25;;;;;;;16.72;99.55;99049.31;5031825;28;20385;-80
2023/05/29 02:50:03;;;;;;;9.93;5.70;;;;;;;16.72;99.21;99045.69;5027001;28;20163;-80
2023/05/29 02:52:30;;;;;;;12.25;6.20;;;;;;;16.73;99.03;99050.13;5026041;28;20057;-80
2023/05/29 02:54:56;;;;;;;12.45;6.50;;;;;;;16.73;99.03;99047.28;5029628;28;20041;-80
2023/05/29 02:57:22;;;;;;;13.73;6.53;;;;;;;16.63;98.56;99035.50;5029478;28;20030;-80
2023/05/29 02:59:47;;;;;;;15.15;6.38;;;;;;;16.69;98.67;99047.25;5026435;28;20052;-80
2023/05/29 03:02:13;;;;;;;7.63;5.40;;;;;;;16.75;98.30;99051.38;5028224;28;20021;-75
2023/05/29 03:04:38;;;;;;;13.18;6.15;;;;;;;16.75;98.40;99056.19;5029596;28;20091;-75
2023/05/29 03:07:04;;;;;;;15.18;6.05;;;;;;;16.71;98.61;99050.50;5030736;28;20037;-75
2023/05/29 03:09:30;;;;;;;13.10;5.82;;;;;;;16.67;98.71;99055.31;5029648;28;20037;-74
2023/05/29 03:11:55;;;;;;;7.45;5.57;;;;;;;16.67;98.54;99047.66;5028024;28;20064;-75
2023/05/29 03:14:21;;;;;;;12.60;7.05;;;;;;;16.79;98.11;99063.50;5028342;28;20033;-75
2023/05/29 03:16:48;;;;;;;11.02;6.07;;;;;;;16.67;98.10;99052.47;5025682;28;20528;-75
2023/05/29 03:19:13;;;;;;;14.80;6.35;;;;;;;16.34;98.90;99031.53;5026586;28;20025;-75
2023/05/29 03:21:39;;;;;;;13.20;7.13;;;;;;;16.30;100.00;99067.38;5029117;28;20484;-75
2023/05/29 03:24:05;;;;;;;10.60;6.75;;;;;;;16.39;100.00;99077.16;5028155;28;20424;-75
2023/05/29 03:26:30;;;;;;;13.85;6.03;;;;;;;16.50;100.00;99073.66;5030357;28;20037;-75
2023/05/29 03:28:56;;;;;;;14.90;6.25;;;;;;;16.60;99.68;99084.28;5029081;28;20066;-74
2023/05/29 03:31:22;;;;;;;11.20;6.60;;;;;;;16.37;99.57;99073.13;5029424;28;20039;-75
2023/05/29 03:33:49;;;;;;;11.30;6.45;;;;;;;16.45;99.65;99072.00;5028831;28;20029;-75
2023/05/29 03:36:16;;;;;;;10.40;6.53;;;;;;;16.61;99.36;99074.59;5029816;28;20116;-75
2023/05/29 03:38:43;;;;;;;9.77;6.50;;;;;;;16.68;99.12;99080.34;5029043;28;20029;-75
2023/05/29 03:41:08;;;;;;;10.00;6.90;;;;;;;16.73;98.94;99081.19;5028977;28;20489;-75
2023/05/29 03:43:34;;;;;;;9.35;6.68;;;;;;;16.78;99.10;99090.13;5022521;28;20036;-75
2023/05/29 03:46:00;;;;;;;16.73;7.20;;;;;;;16.60;98.54;99072.97;5028424;28;20480;-74
2023/05/29 03:48:25;;;;;;;9.45;6.72;;;;;;;16.76;99.04;99094.53;5027251;28;20026;-75
2023/05/29 03:50:51;;;;;;;7.20;5.32;;;;;;;16.70;98.92;99083.59;5030533;28;20489;-75
2023/05/29 03:53:16;;;;;;;12.82;7.05;;;;;;;16.81;98.80;99094.19;5027223;28;20040;-75
2023/05/29 03:55:42;;;;;;;11.27;6.72;;;;;;;16.37;98.72;99102.13;5026390;28;20457;-75
2023/05/29 03:58:07;;;;;;;11.07;6.47;;;;;;;16.56;98.77;99106.00;5030769;28;20396;-75
2023/05/29 04:00:33;;;;;;;11.35;6.68;;;;;;;16.38;98.72;99100.16;5031340;28;20029;-75
2023/05/29 04:02:58;;;;;;;11.65;6.45;;;;;;;16.35;99.20;99101.72;5029709;28;20025;-75
2023/05/29 04:05:25;;;;;;;10.07;6.38;;;;;;;16.45;99.05;99110.72;5027822;28;20420;-74
2023/05/29 04:07:51;;;;;;;15.45;6.95;;;;;;;16.42;99.49;99107.47;5028840;28;20416;-73
2023/05/29 04:10:16;;;;;;;9.95;5.93;;;;;;;16.30;99.58;99098.41;5027737;28;20415;-76
2023/05/29 04:12:42;;;;;;;10.57;6.35;;;;;;;16.24;100.00;99112.88;5021760;28;20033;-75
2023/05/29 04:15:08;;;;;;;11.38;5.78;;;;;;;16.39;100.00;99102.56;5027041;28;20040;-76
2023/05/29 04:17:34;;;;;;;11.23;6.25;;;;;;;16.47;100.00;99106.31;5027979;28;20401;-73
2023/05/29 04:20:03;;;;;;;16.67;7.30;;;;;;;16.45;100.00;99097.38;5028243;28;20033;-73
2023/05/29 04:22:29;;;;;;;8.37;6.33;;;;;;;16.54;100.00;99102.75;5029457;28;20036;-75
2023/05/29 04:24:54;;;;;;;9.75;6.25;;;;;;;16.39;100.00;99098.94;5030931;28;20021;-74
2023/05/29 04:27:20;;;;;;;10.27;7.28;;;;;;;16.30;100.00;99104.06;5028615;28;20393;-73
2023/05/29 04:29:45;;;;;;;14.35;7.18;;;;;;;16.10;100.00;99104.19;5027935;28;20065;-73
2023/05/29 04:32:11;;;;;;;10.60;6.32;;;;;;;15.88;100.00;99086.94;5029316;28;20037;-73
2023/05/29 04:34:38;;;;;;;17.77;7.78;;;;;;;15.92;100.00;99106.75;5018506;28;20480;-71
2023/05/29 04:37:04;;;;;;;12.23;6.18;;;;;;;15.82;100.00;99092.09;5050547;28;20487;-73
2023/05/29 04:39:30;;;;;;;8.30;5.93;;;;;;;15.97;100.00;99097.97;5026682;28;20029;-71
2023/05/29 04:41:58;;;;;;;14.30;6.43;;;;;;;16.09;100.00;99094.94;5027380;28;20554;-71
2023/05/29 04:44:28;;;;;;;9.20;5.40;;;;;;;16.20;100.00;99099.91;5022265;28;20378;-71
2023/05/29 04:46:56;;;;;;;13.75;6.30;;;;;;;16.18;100.00;99107.94;5024802;28;20028;-70
2023/05/29 04:49:22;;;;;;;10.73;5.93;;;;;;;16.44;100.00;99120.38;5030006;28;20048;-71
2023/05/29 04:51:48;;;;;;;12.82;5.82;;;;;;;16.49;100.00;99128.50;5029995;28;20072;-74
2023/05/29 04:54:13;;;;;;;9.75;6.22;;;;;;;16.38;100.00;99111.44;5023851;28;20040;-72
2023/05/29 04:56:42;;;;;;;12.63;7.03;;;;;;;16.52;100.00;99133.38;5023876;28;20067;-74
2023/05/29 04:59:07;;;;;;;16.65;7.45;;;;;;;16.51;100.00;99137.38;5018782;28;20901;-70
2023/05/29 05:01:33;;;;;;;10.88;8.05;;;;;;;16.45;100.00;99130.47;5024947;28;20025;-70
2023/05/29 05:03:59;;;;;;;10.40;7.32;;;;;;;16.56;100.00;99142.72;5028444;28;20117;-75
2023/05/29 05:06:25;;;;;;;12.57;7.00;;;;;;;16.67;100.00;99135.19;5026502;28;20033;-70
2023/05/29 05:08:51;;;;;;;12.95;6.20;;;;;;;16.78;100.00;99140.16;5026012;28;20029;-70
2023/05/29 05:11:18;;;;;;;11.05;6.55;;;;;;;16.69;100.00;99149.72;5021527;28;20813;-70
2023/05/29 05:13:44;;;;;;;9.07;6.47;;;;;;;16.85;99.17;99143.03;5022685;28;20124;-71
2023/05/29 05:16:09;;;;;;;10.65;5.95;;;;;;;16.90;99.28;99142.72;5027099;28;20428;-69
2023/05/29 05:18:36;;;;;;;11.02;6.70;;;;;;;17.10;98.61;99156.66;5031832;28;20064;-72
2023/05/29 05:21:03;;;;;;;13.80;7.97;;;;;;;17.14;97.93;99153.88;5030092;28;20033;-70
2023/05/29 05:23:29;;;;;;;17.15;9.05;;;;;;;16.90;97.58;99158.84;5027909;28;20017;-70
2023/05/29 05:25:55;;;;;;;13.52;8.35;;;;;;;16.97;97.77;99154.06;5028121;28;20483;-69
2023/05/29 05:28:20;;;;;;;19.73;7.47;;;;;;;16.85;98.82;99154.34;5028776;28;20025;-72
2023/05/29 05:30:46;;;;;;;12.18;6.40;;;;;;;17.07;98.08;99169.53;5029135;28;20029;-68
2023/05/29 05:33:11;;;;;;;9.13;6.97;;;;;;;17.14;97.94;99174.50;5029592;28;20140;-70
2023/05/29 05:35:37;;;;;;;14.60;6.85;;;;;;;17.22;97.73;99169.72;5040404;28;20025;-69
2023/05/29 05:38:02;;;;;;;11.25;7.10;;;;;;;17.24;98.11;99176.59;5038885;28;20033;-70
2023/05/29 05:40:28;;;;;;;11.10;6.72;;;;;;;17.12;98.37;99172.03;5030599;28;20029;-67
2023/05/29 05:42:53;;;;;;;18.33;8.73;;;;;;;17.21;98.30;99168.91;5030185;28;20025;-70
2023/05/29 05:45:19;;;;;;;17.92;9.25;;;;;;;17.18;97.70;99166.84;5030437;28;20041;-75
2023/05/29 05:47:45;;;;;;;13.10;7.65;;;;;;;17.14;96.93;99173.66;5031079;28;20039;-69
2023/05/29 05:50:11;;;;;;;12.50;7.65;;;;;;;17.02;97.14;99175.56;5030858;28;20025;-67
2023/05/29 05:52:36;;;;;;;12.15;7.38;;;;;;;17.08;97.28;99170.38;5028497;28;20104;-66
2023/05/29 05:55:03;;;;;;;16.67;8.98;;;;;;;17.11;97.18;99178.88;5029781;28;20025;-67
2023/05/29 05:57:28;;;;;;;18.13;12.93;;;;;;;16.70;99.84;99173.13;5030680;28;20025;-67
2023/05/29 05:59:54;;;;;;;14.63;11.50;;;;;;;16.53;100.00;99166.03;5031079;28;20028;-67
2023/05/29 06:02:19;;;;;;;26.83;16.67;;;;;;;16.38;100.00;99167.88;5029947;28;20029;-68
2023/05/29 06:04:45;;;;;;;32.08;28.38;;;;;;;16.61;100.00;99176.25;5028121;28;20476;-65
2023/05/29 06:07:10;;;;;;;105.18;94.38;;;;;;;16.64;100.00;99169.03;5027077;28;20022;-66
2023/05/29 06:09:36;;;;;;;54.28;46.38;;;;;;;16.50;100.00;99178.09;5028519;28;20040;-70
2023/05/29 06:12:02;;;;;;;57.75;51.30;;;;;;;16.77;100.00;99178.03;5030003;28;20025;-68
2023/05/29 06:14:28;;;;;;;41.17;36.70;;;;;;;16.72;100.00;99170.75;5030653;28;20522;-69
2023/05/29 06:16:54;;;;;;;22.17;17.60;;;;;;;16.93;99.32;99180.66;5033229;28;20499;-70
2023/05/29 06:19:20;;;;;;;17.73;12.25;;;;;;;17.09;99.24;99178.47;5027319;28;20018;-70
2023/05/29 06:21:46;;;;;;;16.17;9.70;;;;;;;17.30;98.34;99173.44;5029603;28;20377;-68
2023/05/29 06:24:12;;;;;;;13.25;8.23;;;;;;;17.33;97.71;99179.13;5029903;28;20025;-68
2023/05/29 06:26:37;;;;;;;15.63;8.63;;;;;;;17.49;97.37;99184.50;5033396;28;20507;-67
2023/05/29 06:29:03;;;;;;;16.55;8.07;;;;;;;17.48;93.82;99185.72;5022185;28;20087;-67
2023/05/29 06:31:28;;;;;;;18.95;6.93;;;;;;;17.52;94.11;99183.75;5031445;28;20025;-67
2023/05/29 06:33:54;;;;;;;12.50;7.20;;;;;;;17.81;94.26;99171.88;5030432;28;20555;-67
2023/05/29 06:36:21;;;;;;;10.45;7.40;;;;;;;18.03;93.18;99177.72;5032815;28;20139;-66
2023/05/29 06:38:50;;;;;;;11.55;5.22;;;;;;;18.10;90.35;99181.44;5027934;28;20079;-68
2023/05/29 06:41:16;;;;;;;11.50;6.38;;;;;;;18.36;88.92;99173.06;5028521;28;20104;-67
2023/05/29 06:43:42;;;;;;;7.28;6.13;;;;;;;18.49;88.09;99182.84;5030233;28;20457;-67
2023/05/29 06:46:07;;;;;;;15.95;6.45;;;;;;;18.82;86.87;99176.53;5032469;28;20017;-67
2023/05/29 06:48:36;;;;;;;13.23;5.75;;;;;;;19.25;85.46;99192.91;5032729;28;20071;-72
2023/05/29 06:51:08;;;;;;;14.68;5.60;;;;;;;19.37;83.69;99186.84;5032370;28;20065;-73
2023/05/29 06:53:37;;;;;;;9.85;5.93;;;;;;;19.30;82.88;99189.66;5030717;28;20091;-74
2023/05/29 06:56:03;;;;;;;6.18;5.25;;;;;;;19.20;82.11;99185.59;5031880;28;20033;-74
2023/05/29 06:58:30;;;;;;;8.27;6.35;;;;;;;19.18;83.42;99186.00;5030635;28;20029;-73
2023/05/29 07:00:56;;;;;;;11.13;6.70;;;;;;;18.87;84.72;99185.47;5033145;28;20023;-74
2023/05/29 07:03:21;;;;;;;10.25;5.90;;;;;;;19.01;84.45;99189.59;5033438;28;20029;-70
2023/05/29 07:05:47;;;;;;;9.50;6.72;;;;;;;19.05;84.42;99187.56;5018585;28;20030;-75
2023/05/29 07:08:13;;;;;;;10.68;6.10;;;;;;;18.95;83.93;99183.47;5026738;28;20025;-76
2023/05/29 07:10:38;;;;;;;10.25;6.28;;;;;;;19.01;84.79;99189.59;5026144;28;20516;-77
2023/05/29 07:13:06;;;;;;;9.98;5.90;;;;;;;18.93;83.57;99191.56;5030594;28;20032;-76
2023/05/29 07:15:31;;;;;;;11.77;8.10;;;;;;;18.80;84.14;99188.25;5032900;28;20716;-74
2023/05/29 07:17:57;;;;;;;8.13;6.28;;;;;;;18.77;85.09;99178.56;5027621;28;20021;-76
2023/05/29 07:20:22;;;;;;;11.88;6.28;;;;;;;18.90;83.97;99184.66;5029111;28;20484;-80
2023/05/29 07:22:48;;;;;;;10.18;5.75;;;;;;;18.91;83.46;99189.13;5030031;28;20489;-83
2023/05/29 07:25:13;;;;;;;9.27;6.15;;;;;;;19.13;82.21;99177.09;5024636;28;20017;-79
2023/05/29 07:27:38;;;;;;;13.88;6.88;;;;;;;19.02;82.47;99171.38;5028703;28;20021;-80
2023/05/29 07:30:05;;;;;;;9.65;6.13;;;;;;;19.38;82.31;99199.81;5030385;28;20033;-75
2023/05/29 07:32:31;;;;;;;74.50;10.70;;;;;;;19.27;81.97;99190.47;5030544;28;20068;-75
2023/05/29 07:34:56;;;;;;;15.27;6.65;;;;;;;19.22;82.80;99186.81;5044588;28;20436;-73
2023/05/29 07:37:22;;;;;;;15.00;6.43;;;;;;;19.27;83.81;99184.81;5035443;28;20429;-74
2023/05/29 07:39:47;;;;;;;13.75;6.50;;;;;;;19.27;83.73;99184.81;5022606;28;20029;-72
2023/05/29 07:42:13;;;;;;;9.10;5.57;;;;;;;19.55;82.65;99188.91;5023373;28;20041;-73
2023/05/29 07:44:38;;;;;;;12.80;6.93;;;;;;;19.83;81.97;99185.28;5031329;28;20040;-75
2023/05/29 07:47:04;;;;;;;13.45;6.30;;;;;;;19.72;79.85;99193.78;5030425;28;20108;-75
2023/05/29 07:49:30;;;;;;;7.55;6.35;;;;;;;19.75;80.73;99204.31;5031299;28;20041;-73
2023/05/29 07:51:55;;;;;;;6.88;5.95;;;;;;;19.81;79.02;99184.06;5030229;28;20053;-73
2023/05/29 07:54:22;;;;;;;10.35;5.50;;;;;;;20.14;78.99;99196.22;5030217;28;20135;-73
2023/05/29 07:56:49;;;;;;;15.00;5.70;;;;;;;20.36;78.81;99194.19;5028147;28;20517;-73
2023/05/29 07:59:14;;;;;;;11.27;5.70;;;;;;;20.17;76.65;99186.91;5030058;28;20033;-73
2023/05/29 08:01:40;;;;;;;12.15;5.72;;;;;;;20.43;77.01;99196.19;5030944;28;20029;-73
2023/05/29 08:04:05;;;;;;;8.15;5.35;;;;;;;20.70;73.27;99187.19;5029956;28;20029;-73
2023/05/29 08:06:34;;;;;;;12.50;5.10;;;;;;;20.77;72.03;99190.81;5031284;28;20030;-73
2023/05/29 08:08:59;;;;;;;12.77;5.10;;;;;;;21.09;71.28;99191.13;5018255;28;20025;-74
2023/05/29 08:11:25;;;;;;;109.35;14.13;;;;;;;21.18;70.80;99183.75;5026170;28;20044;-74
2023/05/29 08:13:51;;;;;;;31.83;5.90;;;;;;;21.26;71.02;99173.13;5028298;28;20033;-76
2023/05/29 08:16:16;;;;;;;9.90;4.68;;;;;;;20.62;70.17;99190.03;5029352;28;20048;-74
2023/05/29 08:18:42;;;;;;;10.60;6.15;;;;;;;20.94;69.88;99179.81;5031056;28;20029;-76
2023/05/29 08:21:11;;;;;;;18.77;4.20;;;;;;;21.27;67.23;99179.66;5030949;28;20029;-76
2023/05/29 08:23:36;;;;;;;8.23;4.53;;;;;;;21.10;66.25;99187.84;5030132;28;20032;-75
2023/05/29 08:26:05;;;;;;;8.45;4.43;;;;;;;21.46;65.52;99192.53;5027411;28;20026;-75
2023/05/29 08:28:36;;;;;;;6.50;3.97;;;;;;;21.40;65.02;99169.41;5025946;28;20056;-74
2023/05/29 08:31:02;;;;;;;8.57;4.38;;;;;;;21.56;63.83;99168.06;5031070;28;20021;-75
2023/05/29 08:33:27;;;;;;;7.88;4.47;;;;;;;21.76;63.49;99187.47;5029055;28;20088;-76
2023/05/29 08:35:53;;;;;;;5.13;4.45;;;;;;;21.89;64.35;99174.34;5030317;28;20492;-74
2023/05/29 08:38:20;;;;;;;6.05;4.15;;;;;;;21.88;62.55;99172.72;5032883;28;20488;-76
2023/05/29 08:40:47;;;;;;;23.23;5.13;;;;;;;22.26;61.72;99175.63;5034616;28;20029;-75
2023/05/29 08:43:17;;;;;;;10.05;4.50;;;;;;;22.28;60.98;99184.53;5034369;28;20120;-75
2023/05/29 08:45:44;;;;;;;9.43;4.47;;;;;;;22.52;59.69;99179.03;5029604;28;20028;-75
2023/05/29 08:48:11;;;;;;;5.40;4.07;;;;;;;22.73;58.40;99180.03;5035162;28;20025;-74
2023/05/29 08:50:46;;;;;;;7.22;3.90;;;;;;;22.89;59.19;99175.75;5034452;28;20029;-77
2023/05/29 08:53:16;;;;;;;9.50;4.15;;;;;;;22.89;58.14;99172.91;5047204;28;20041;-78
2023/05/29 08:55:42;;;;;;;8.52;4.15;;;;;;;23.05;56.71;99170.25;5041310;28;20036;-79
2023/05/29 08:58:10;;;;;;;5.72;3.67;;;;;;;23.09;56.04;99173.88;5031621;28;20064;-80
2023/05/29 09:00:36;;;;;;;5.75;3.83;;;;;;;23.07;57.96;99162.06;5030903;28;20179;-78
2023/05/29 09:03:03;;;;;;;7.65;3.95;;;;;;;23.20;57.76;99168.00;5039304;28;20025;-78
2023/05/29 09:05:29;;;;;;;6.57;4.32;;;;;;;23.37;55.81;99169.00;5044912;28;20534;-79
2023/05/29 09:07:55;;;;;;;7.40;3.83;;;;;;;23.33;54.20;99173.97;5033928;28;20495;-79
2023/05/29 09:10:22;;;;;;;5.60;3.40;;;;;;;23.41;53.58;99181.19;5039536;28;20077;-72
2023/05/29 09:12:50;;;;;;;7.57;4.53;;;;;;;22.97;52.48;99180.13;5035913;28;20159;-76
2023/05/29 09:15:23;;;;;;;23.80;4.55;;;;;;;22.86;56.57;99172.53;5039854;28;20545;-74
2023/05/29 09:17:54;;;;;;;6.20;3.70;;;;;;;22.72;53.83;99179.19;5035701;28;20129;-76
2023/05/29 09:20:24;;;;;;;10.55;4.57;;;;;;;22.81;56.27;99166.50;5028465;28;20032;-76
2023/05/29 09:22:54;;;;;;;4.00;3.55;;;;;;;23.00;55.46;99170.72;5050156;28;20033;-75
2023/05/29 09:25:22;;;;;;;10.70;4.13;;;;;;;23.10;55.49;99166.91;5040594;28;20113;-75
2023/05/29 09:27:52;;;;;;;9.52;4.05;;;;;;;23.17;52.96;99165.19;5029675;28;20099;-76
2023/05/29 09:30:40;;;;;;;4.65;3.97;;;;;;;23.37;51.68;99160.44;5039671;28;20045;-76
2023/05/29 09:33:07;;;;;;;6.82;4.72;;;;;;;23.36;51.43;99158.03;5033328;28;20029;-76
2023/05/29 09:35:37;;;;;;;4.05;3.63;;;;;;;23.21;52.74;99163.13;5037995;28;20029;-75
2023/05/29 09:38:03;;;;;;;6.10;4.82;;;;;;;23.13;52.50;99168.91;5038639;28;20029;-75
2023/05/29 09:40:32;;;;;;;12.88;4.00;;;;;;;23.11;52.00;99168.53;5031451;28;20057;-76
2023/05/29 09:43:19;;;;;;;6.55;4.07;;;;;;;23.13;53.30;99160.34;5021313;28;20033;-77
2023/05/29 09:45:46;;;;;;;6.32;3.85;;;;;;;23.21;53.36;99158.19;5035643;28;20033;-76
2023/05/29 09:48:22;;;;;;;4.90;3.80;;;;;;;23.04;52.71;99148.66;5033061;28;20096;-76
2023/05/29 09:50:48;;;;;;;6.80;3.65;;;;;;;23.02;52.51;99156.03;5040496;28;20033;-76
2023/05/29 09:53:24;;;;;;;4.53;3.78;;;;;;;23.02;53.93;99153.97;5038559;28;20044;-76
2023/05/29 09:55:51;;;;;;;9.75;5.18;;;;;;;22.91;55.16;99154.13;5038770;28;20049;-77
2023/05/29 09:58:18;;;;;;;11.55;4.95;;;;;;;22.78;57.72;99148.19;5033355;28;20583;-77
2023/05/29 10:00:44;;;;;;;11.98;5.30;;;;;;;22.67;57.14;99145.47;5029950;28;20026;-78
2023/05/29 10:03:13;;;;;;;6.63;4.90;;;;;;;22.60;56.83;99141.91;5039084;28;20123;-78
2023/05/29 10:05:42;;;;;;;6.67;4.43;;;;;;;22.40;57.22;99143.34;5026456;28;20018;-79
2023/05/29 10:08:12;;;;;;;7.40;4.68;;;;;;;22.36;57.05;99145.38;5032373;28;20419;-79
2023/05/29 10:10:44;;;;;;;6.60;4.88;;;;;;;22.30;57.22;99136.50;5049607;28;20082;-79
2023/05/29 10:13:13;;;;;;;6.82;4.25;;;;;;;22.35;56.82;99140.13;5033655;28;20041;-78
2023/05/29 10:15:45;;;;;;;6.88;4.80;;;;;;;22.28;56.80;99138.97;5040735;28;20052;-77
2023/05/29 10:18:20;;;;;;;7.78;5.10;;;;;;;22.37;58.03;99137.66;5034141;28;20033;-78
2023/05/29 10:20:55;;;;;;;6.40;4.90;;;;;;;22.54;57.46;99133.81;5046702;28;20025;-78
2023/05/29 10:23:25;;;;;;;7.43;4.82;;;;;;;22.57;56.63;99135.84;5032156;28;20079;-76
2023/05/29 10:26:01;;;;;;;5.95;4.90;;;;;;;22.56;57.19;99130.56;5038512;28;20459;-79
2023/05/29 10:28:27;;;;;;;8.05;4.53;;;;;;;23.00;57.42;99137.31;5029245;28;20052;-79
2023/05/29 10:31:13;;;;;;;8.50;4.35;;;;;;;23.03;55.96;99141.34;5036843;28;20024;-79
2023/05/29 10:33:42;;;;;;;6.50;4.13;;;;;;;23.32;54.61;99135.25;5036679;28;20025;-79
2023/05/29 10:36:14;;;;;;;5.90;4.43;;;;;;;23.47;53.17;99130.16;5030002;28;20025;-79
2023/05/29 10:38:45;;;;;;;10.80;4.25;;;;;;;23.53;52.65;99119.84;5034105;28;20108;-74
2023/05/29 10:41:26;;;;;;;5.85;4.10;;;;;;;23.49;51.94;99121.13;5024037;28;20059;-78
2023/05/29 10:44:01;;;;;;;6.57;4.45;;;;;;;23.72;51.97;99120.38;5019079;28;20079;-78
2023/05/29 10:46:46;;;;;;;24.70;4.53;;;;;;;23.72;52.22;99110.97;5019281;28;20017;-79
2023/05/29 10:49:19;;;;;;;7.80;4.93;;;;;;;23.90;51.49;99110.66;5030797;28;20017;-79
2023/05/29 10:51:45;;;;;;;10.45;4.43;;;;;;;24.06;50.48;99110.00;5051518;28;20099;-78
2023/05/29 10:54:10;;;;;;;9.15;3.50;;;;;;;24.16;49.90;99111.84;5037880;28;20021;-79
2023/05/29 10:56:37;;;;;;;3.63;3.20;;;;;;;23.97;48.98;99099.91;5036527;28;20714;-79
2023/05/29 10:59:03;;;;;;;7.10;3.55;;;;;;;24.19;48.81;99110.97;5025654;28;20493;-79
2023/05/29 11:01:30;;;;;;;4.38;3.60;;;;;;;24.33;49.56;99100.50;5030818;28;20060;-79
2023/05/29 11:04:15;;;;;;;7.28;3.38;;;;;;;24.29;47.69;99105.50;5020189;28;20108;-79
2023/05/29 11:06:41;;;;;;;6.32;3.72;;;;;;;24.45;46.56;99096.19;5035584;28;20057;-79
2023/05/29 11:09:35;;;;;;;6.38;3.38;;;;;;;24.66;47.26;99094.94;5034376;28;20112;-79
2023/05/29 11:12:35;;;;;;;9.75;3.80;;;;;;;24.88;47.20;99089.56;5029405;28;20022;-79
2023/05/29 11:15:04;;;;;;;;;;;;;;;24.76;46.77;99095.94;5029978;28;20119;-79
2023/05/29 11:17:30;;;;;;;8.50;3.20;;;;;;;24.17;47.86;99089.78;5026111;28;19917;-79
2023/05/29 11:19:56;;;;;;;6.20;3.53;;;;;;;24.23;48.42;99080.28;5020951;28;20487;-79
2023/05/29 11:22:31;;;;;;;7.13;3.40;;;;;;;24.40;46.95;99086.09;5027767;28;20562;-79
2023/05/29 11:24:57;;;;;;;4.78;3.53;;;;;;;24.42;47.16;99082.75;5013965;28;20021;-79
2023/05/29 11:27:24;;;;;;;9.07;3.72;;;;;;;24.53;48.81;99072.75;5016386;28;20432;-80
2023/05/29 11:29:53;;;;;;;7.18;3.97;;;;;;;24.56;47.86;99075.97;5022990;28;20101;-80